sensor_id;sensor_type;location;lat;lon;timestamp;pressure;altitude;pressure_sealevel;temperature;humidity
11017;BME280;54687;50.800;6.772;2023-03-25T00:01:38;61067.75;;;-144.06;57.71
11017;BME280;54687;50.800;6.772;2023-03-25T00:04:05;61082.44;;;-144.06;57.65
11017;BME280;54687;50.800;6.772;2023-03-25T00:06:33;61059.38;;;-144.06;57.49
11017;BME280;54687;50.800;6.772;2023-03-25T00:09:01;61046.78;;;-144.06;58.03
11017;BME280;54687;50.800;6.772;2023-03-25T00:11:28;61076.13;;;-144.06;58.00
11017;BME280;54687;50.800;6.772;2023-03-25T00:13:55;61080.34;;;-144.06;58.04
11017;BME280;54687;50.800;6.772;2023-03-25T00:16:22;61086.63;;;-144.06;58.29
11017;BME280;54687;50.800;6.772;2023-03-25T00:18:49;61046.78;;;-144.06;58.08
11017;BME280;54687;50.800;6.772;2023-03-25T00:21:15;61076.13;;;-144.06;57.88
11017;BME280;54687;50.800;6.772;2023-03-25T00:23:45;61067.75;;;-144.06;57.48
11017;BME280;54687;50.800;6.772;2023-03-25T00:26:11;61080.34;;;-144.06;57.46
11017;BME280;54687;50.800;6.772;2023-03-25T00:28:38;61040.50;;;-144.06;57.44
11017;BME280;54687;50.800;6.772;2023-03-25T00:31:09;61055.19;;;-144.06;57.33
11017;BME280;54687;50.800;6.772;2023-03-25T00:33:37;61042.59;;;-144.06;56.98
11017;BME280;54687;50.800;6.772;2023-03-25T00:36:06;61011.16;;;-144.06;57.09
11017;BME280;54687;50.800;6.772;2023-03-25T00:38:33;61097.09;;;-144.06;56.93
11017;BME280;54687;50.800;6.772;2023-03-25T00:41:14;61006.97;;;-144.06;56.88
11017;BME280;54687;50.800;6.772;2023-03-25T00:43:47;61051.00;;;-144.06;56.70
11017;BME280;54687;50.800;6.772;2023-03-25T00:46:14;61069.84;;;-144.06;56.63
11017;BME280;54687;50.800;6.772;2023-03-25T00:48:41;61090.81;;;-144.06;56.56
11017;BME280;54687;50.800;6.772;2023-03-25T00:51:08;61074.03;;;-144.06;56.50
11017;BME280;54687;50.800;6.772;2023-03-25T00:53:39;61082.44;;;-144.06;56.62
11017;BME280;54687;50.800;6.772;2023-03-25T00:56:06;61051.00;;;-144.06;56.74
11017;BME280;54687;50.800;6.772;2023-03-25T00:58:34;61059.38;;;-144.06;56.65
11017;BME280;54687;50.800;6.772;2023-03-25T01:01:07;61027.94;;;-144.06;56.56
11017;BME280;54687;50.800;6.772;2023-03-25T01:03:35;61051.00;;;-144.06;56.62
11017;BME280;54687;50.800;6.772;2023-03-25T01:06:02;61019.53;;;-144.06;56.90
11017;BME280;54687;50.800;6.772;2023-03-25T01:08:32;61051.00;;;-144.06;56.85
11017;BME280;54687;50.800;6.772;2023-03-25T01:10:59;61019.53;;;-144.06;56.40
11017;BME280;54687;50.800;6.772;2023-03-25T01:13:25;61063.56;;;-144.06;56.41
11017;BME280;54687;50.800;6.772;2023-03-25T01:15:54;61051.00;;;-144.06;56.28
11017;BME280;54687;50.800;6.772;2023-03-25T01:18:21;61069.84;;;-144.06;56.37
11017;BME280;54687;50.800;6.772;2023-03-25T01:20:47;61046.78;;;-144.06;56.07
11017;BME280;54687;50.800;6.772;2023-03-25T01:23:14;61051.00;;;-144.06;56.26
11017;BME280;54687;50.800;6.772;2023-03-25T01:25:42;61048.88;;;-144.06;55.92
11017;BME280;54687;50.800;6.772;2023-03-25T01:28:09;61061.47;;;-144.06;55.89
11017;BME280;54687;50.800;6.772;2023-03-25T01:30:36;61090.81;;;-144.06;56.34
11017;BME280;54687;50.800;6.772;2023-03-25T01:33:03;61036.31;;;-144.06;57.08
11017;BME280;54687;50.800;6.772;2023-03-25T01:35:30;61061.47;;;-144.06;57.29
11017;BME280;54687;50.800;6.772;2023-03-25T01:37:57;61067.75;;;-144.06;57.54
11017;BME280;54687;50.800;6.772;2023-03-25T01:40:24;61027.94;;;-144.06;57.80
11017;BME280;54687;50.800;6.772;2023-03-25T01:42:51;61036.31;;;-144.06;57.51
11017;BME280;54687;50.800;6.772;2023-03-25T01:45:25;61046.78;;;-144.06;57.80
11017;BME280;54687;50.800;6.772;2023-03-25T01:48:00;61078.25;;;-144.06;57.95
11017;BME280;54687;50.800;6.772;2023-03-25T01:50:35;61067.75;;;-144.06;58.17
11017;BME280;54687;50.800;6.772;2023-03-25T01:53:04;61101.28;;;-144.06;58.00
11017;BME280;54687;50.800;6.772;2023-03-25T01:55:33;61044.69;;;-144.06;58.10
11017;BME280;54687;50.800;6.772;2023-03-25T01:58:03;61042.59;;;-144.06;58.05
11017;BME280;54687;50.800;6.772;2023-03-25T02:00:32;61057.28;;;-144.06;57.78
11017;BME280;54687;50.800;6.772;2023-03-25T02:03:01;61034.22;;;-144.06;58.10
11017;BME280;54687;50.800;6.772;2023-03-25T02:05:35;61046.78;;;-144.06;58.18
11017;BME280;54687;50.800;6.772;2023-03-25T02:08:08;61038.41;;;-144.06;58.04
11017;BME280;54687;50.800;6.772;2023-03-25T02:10:35;61067.75;;;-144.06;58.49
11017;BME280;54687;50.800;6.772;2023-03-25T02:13:04;61097.09;;;-144.06;58.48
11017;BME280;54687;50.800;6.772;2023-03-25T02:15:39;61017.44;;;-144.06;58.13
11017;BME280;54687;50.800;6.772;2023-03-25T02:18:18;61086.63;;;-144.06;58.22
11017;BME280;54687;50.800;6.772;2023-03-25T02:21:24;61074.03;;;-144.06;58.13
11017;BME280;54687;50.800;6.772;2023-03-25T02:24:27;61059.38;;;-144.06;57.73
11017;BME280;54687;50.800;6.772;2023-03-25T02:27:26;61042.59;;;-144.06;57.80
11017;BME280;54687;50.800;6.772;2023-03-25T02:30:23;61101.28;;;-144.06;57.51
11017;BME280;54687;50.800;6.772;2023-03-25T02:36:30;61057.28;;;-144.06;55.86
11017;BME280;54687;50.800;6.772;2023-03-25T02:39:09;61040.50;;;-144.06;55.97
11017;BME280;54687;50.800;6.772;2023-03-25T02:41:42;61027.94;;;-144.06;55.65
11017;BME280;54687;50.800;6.772;2023-03-25T02:44:16;61017.44;;;-144.06;56.08
11017;BME280;54687;50.800;6.772;2023-03-25T02:46:48;61067.75;;;-144.06;55.94
11017;BME280;54687;50.800;6.772;2023-03-25T02:49:21;61061.47;;;-144.06;55.75
11017;BME280;54687;50.800;6.772;2023-03-25T02:51:53;61088.72;;;-144.06;55.93
11017;BME280;54687;50.800;6.772;2023-03-25T02:54:25;61076.13;;;-144.06;55.25
11017;BME280;54687;50.800;6.772;2023-03-25T02:56:53;61048.88;;;-144.06;55.32
11017;BME280;54687;50.800;6.772;2023-03-25T02:59:22;61034.22;;;-144.06;55.33
11017;BME280;54687;50.800;6.772;2023-03-25T03:01:53;61051.00;;;-144.06;55.25
11017;BME280;54687;50.800;6.772;2023-03-25T03:04:23;61067.75;;;-144.06;55.13
11017;BME280;54687;50.800;6.772;2023-03-25T03:06:50;61071.94;;;-144.06;56.02
11017;BME280;54687;50.800;6.772;2023-03-25T03:09:25;61053.09;;;-144.06;56.05
11017;BME280;54687;50.800;6.772;2023-03-25T03:12:07;61067.75;;;-144.06;56.39
11017;BME280;54687;50.800;6.772;2023-03-25T03:14:50;61021.63;;;-144.06;55.82
11017;BME280;54687;50.800;6.772;2023-03-25T03:17:24;61099.19;;;-144.06;55.90
11017;BME280;54687;50.800;6.772;2023-03-25T03:19:55;61076.13;;;-144.06;55.82
11017;BME280;54687;50.800;6.772;2023-03-25T03:22:34;61067.75;;;-144.06;55.90
11017;BME280;54687;50.800;6.772;2023-03-25T03:25:11;61042.59;;;-144.06;55.94
11017;BME280;54687;50.800;6.772;2023-03-25T03:27:44;61105.50;;;-144.06;56.49
11017;BME280;54687;50.800;6.772;2023-03-25T03:30:16;61051.00;;;-144.06;56.45
11017;BME280;54687;50.800;6.772;2023-03-25T03:32:48;61042.59;;;-144.06;56.40
11017;BME280;54687;50.800;6.772;2023-03-25T03:35:21;61032.13;;;-144.06;56.70
11017;BME280;54687;50.800;6.772;2023-03-25T03:37:54;61067.75;;;-144.06;56.57
11017;BME280;54687;50.800;6.772;2023-03-25T03:40:27;61051.00;;;-144.06;56.48
11017;BME280;54687;50.800;6.772;2023-03-25T03:42:57;61074.03;;;-144.06;56.54
11017;BME280;54687;50.800;6.772;2023-03-25T03:45:29;61071.94;;;-144.06;56.31
11017;BME280;54687;50.800;6.772;2023-03-25T03:48:03;61034.22;;;-144.06;56.14
11017;BME280;54687;50.800;6.772;2023-03-25T03:50:36;61071.94;;;-144.06;56.17
11017;BME280;54687;50.800;6.772;2023-03-25T03:53:07;61046.78;;;-144.06;56.38
11017;BME280;54687;50.800;6.772;2023-03-25T03:55:40;61071.94;;;-144.06;55.95
11017;BME280;54687;50.800;6.772;2023-03-25T03:58:11;61055.19;;;-144.06;55.89
11017;BME280;54687;50.800;6.772;2023-03-25T04:00:42;61080.34;;;-144.06;55.86
11017;BME280;54687;50.800;6.772;2023-03-25T04:03:16;61097.09;;;-144.06;55.95
11017;BME280;54687;50.800;6.772;2023-03-25T04:05:54;61071.94;;;-144.06;56.29
11017;BME280;54687;50.800;6.772;2023-03-25T04:08:28;61080.34;;;-144.06;56.14
11017;BME280;54687;50.800;6.772;2023-03-25T04:11:00;61097.09;;;-144.06;56.48
11017;BME280;54687;50.800;6.772;2023-03-25T04:13:33;61053.09;;;-144.06;56.46
11017;BME280;54687;50.800;6.772;2023-03-25T04:16:01;61034.22;;;-144.06;56.24
11017;BME280;54687;50.800;6.772;2023-03-25T04:18:27;61099.19;;;-144.06;56.21
11017;BME280;54687;50.800;6.772;2023-03-25T04:20:57;61101.28;;;-144.06;55.82
11017;BME280;54687;50.800;6.772;2023-03-25T04:23:25;61088.72;;;-144.06;55.93
11017;BME280;54687;50.800;6.772;2023-03-25T04:25:54;61055.19;;;-144.06;55.75
11017;BME280;54687;50.800;6.772;2023-03-25T04:28:22;61055.19;;;-144.06;55.57
11017;BME280;54687;50.800;6.772;2023-03-25T04:30:50;61084.53;;;-144.06;55.69
11017;BME280;54687;50.800;6.772;2023-03-25T04:33:20;61074.03;;;-144.06;55.52
11017;BME280;54687;50.800;6.772;2023-03-25T04:35:47;61042.59;;;-144.06;55.46
11017;BME280;54687;50.800;6.772;2023-03-25T04:38:18;61071.94;;;-144.06;55.00
11017;BME280;54687;50.800;6.772;2023-03-25T04:40:44;61071.94;;;-144.06;55.06
11017;BME280;54687;50.800;6.772;2023-03-25T04:43:12;61055.19;;;-144.06;54.99
11017;BME280;54687;50.800;6.772;2023-03-25T04:45:40;61067.75;;;-144.06;55.25
11017;BME280;54687;50.800;6.772;2023-03-25T04:48:17;61040.50;;;-144.06;54.73
11017;BME280;54687;50.800;6.772;2023-03-25T04:50:46;61055.19;;;-144.06;54.83
11017;BME280;54687;50.800;6.772;2023-03-25T04:53:13;61057.28;;;-144.06;54.77
11017;BME280;54687;50.800;6.772;2023-03-25T04:55:39;61051.00;;;-144.06;54.68
11017;BME280;54687;50.800;6.772;2023-03-25T04:58:12;61051.00;;;-144.06;54.78
11017;BME280;54687;50.800;6.772;2023-03-25T05:00:41;61051.00;;;-144.06;54.67
11017;BME280;54687;50.800;6.772;2023-03-25T05:03:09;61034.22;;;-144.06;54.77
11017;BME280;54687;50.800;6.772;2023-03-25T05:05:37;61055.19;;;-144.06;54.95
11017;BME280;54687;50.800;6.772;2023-03-25T05:08:04;61051.00;;;-144.06;55.01
11017;BME280;54687;50.800;6.772;2023-03-25T05:10:30;61071.94;;;-144.06;54.86
11017;BME280;54687;50.800;6.772;2023-03-25T05:12:59;61092.91;;;-144.06;54.91
11017;BME280;54687;50.800;6.772;2023-03-25T05:15:26;61084.53;;;-144.06;54.72
11017;BME280;54687;50.800;6.772;2023-03-25T05:17:56;61092.91;;;-144.06;54.92
11017;BME280;54687;50.800;6.772;2023-03-25T05:20:23;61118.06;;;-144.06;54.74
11017;BME280;54687;50.800;6.772;2023-03-25T05:22:49;61080.34;;;-144.06;54.96
11017;BME280;54687;50.800;6.772;2023-03-25T05:25:18;61063.56;;;-144.06;55.17
11017;BME280;54687;50.800;6.772;2023-03-25T05:27:46;61059.38;;;-144.06;55.23
11017;BME280;54687;50.800;6.772;2023-03-25T05:30:13;61061.47;;;-144.06;54.89
11017;BME280;54687;50.800;6.772;2023-03-25T05:32:40;61048.88;;;-144.06;55.17
11017;BME280;54687;50.800;6.772;2023-03-25T05:35:11;61057.28;;;-144.06;54.99
11017;BME280;54687;50.800;6.772;2023-03-25T05:37:37;61065.66;;;-144.06;55.13
11017;BME280;54687;50.800;6.772;2023-03-25T05:40:05;61086.63;;;-144.06;55.01
11017;BME280;54687;50.800;6.772;2023-03-25T05:42:35;61061.47;;;-144.06;55.00
11017;BME280;54687;50.800;6.772;2023-03-25T05:45:02;61055.19;;;-144.06;54.89
11017;BME280;54687;50.800;6.772;2023-03-25T05:47:28;61065.66;;;-144.06;55.21
11017;BME280;54687;50.800;6.772;2023-03-25T05:49:55;61076.13;;;-144.06;55.19
11017;BME280;54687;50.800;6.772;2023-03-25T05:52:25;61071.94;;;-144.06;55.12
11017;BME280;54687;50.800;6.772;2023-03-25T05:54:52;61111.78;;;-144.06;55.02
11017;BME280;54687;50.800;6.772;2023-03-25T05:57:20;61063.56;;;-144.06;54.72
11017;BME280;54687;50.800;6.772;2023-03-25T05:59:46;61067.75;;;-144.06;54.66
11017;BME280;54687;50.800;6.772;2023-03-25T06:02:14;61055.19;;;-144.06;54.64
11017;BME280;54687;50.800;6.772;2023-03-25T06:04:42;61053.09;;;-144.06;54.65
11017;BME280;54687;50.800;6.772;2023-03-25T06:07:11;61084.53;;;-144.06;53.95
11017;BME280;54687;50.800;6.772;2023-03-25T06:09:45;61069.84;;;-144.06;53.79
11017;BME280;54687;50.800;6.772;2023-03-25T06:12:12;61084.53;;;-144.06;53.88
11017;BME280;54687;50.800;6.772;2023-03-25T06:14:39;61101.28;;;-144.06;53.51
11017;BME280;54687;50.800;6.772;2023-03-25T06:17:09;61019.53;;;-144.06;53.56
11017;BME280;54687;50.800;6.772;2023-03-25T06:19:36;61147.41;;;-144.06;53.33
11017;BME280;54687;50.800;6.772;2023-03-25T06:22:04;61067.75;;;-144.06;53.17
11017;BME280;54687;50.800;6.772;2023-03-25T06:24:33;61017.44;;;-144.06;53.38
11017;BME280;54687;50.800;6.772;2023-03-25T06:27:01;61122.25;;;-144.06;53.42
11017;BME280;54687;50.800;6.772;2023-03-25T06:29:28;61069.84;;;-144.06;53.03
11017;BME280;54687;50.800;6.772;2023-03-25T06:31:55;61063.56;;;-144.06;53.09
11017;BME280;54687;50.800;6.772;2023-03-25T06:34:21;61042.59;;;-144.06;53.08
11017;BME280;54687;50.800;6.772;2023-03-25T06:36:48;61067.75;;;-144.06;52.73
11017;BME280;54687;50.800;6.772;2023-03-25T06:39:15;61038.41;;;-144.06;52.61
11017;BME280;54687;50.800;6.772;2023-03-25T06:41:41;61059.38;;;-144.06;52.68
11017;BME280;54687;50.800;6.772;2023-03-25T06:44:09;61055.19;;;-144.06;54.97
11017;BME280;54687;50.800;6.772;2023-03-25T06:46:36;61084.53;;;-144.06;55.69
11017;BME280;54687;50.800;6.772;2023-03-25T06:49:02;61067.75;;;-144.06;56.99
11017;BME280;54687;50.800;6.772;2023-03-25T06:51:29;61097.09;;;-144.06;57.84
11017;BME280;54687;50.800;6.772;2023-03-25T06:53:56;61078.25;;;-144.06;58.89
11017;BME280;54687;50.800;6.772;2023-03-25T06:56:22;61051.00;;;-144.06;59.97
11017;BME280;54687;50.800;6.772;2023-03-25T06:58:49;61101.28;;;-144.06;60.77
11017;BME280;54687;50.800;6.772;2023-03-25T07:01:17;61111.78;;;-144.06;60.49
11017;BME280;54687;50.800;6.772;2023-03-25T07:03:43;61065.66;;;-144.06;60.43
11017;BME280;54687;50.800;6.772;2023-03-25T07:06:15;61038.41;;;-144.06;59.73
11017;BME280;54687;50.800;6.772;2023-03-25T07:08:42;61092.91;;;-144.06;60.27
11017;BME280;54687;50.800;6.772;2023-03-25T07:11:09;61078.25;;;-144.06;60.67
11017;BME280;54687;50.800;6.772;2023-03-25T07:13:37;61080.34;;;-144.06;61.67
11017;BME280;54687;50.800;6.772;2023-03-25T07:16:05;61071.94;;;-144.06;63.47
11017;BME280;54687;50.800;6.772;2023-03-25T07:18:33;61057.28;;;-144.06;63.94
11017;BME280;54687;50.800;6.772;2023-03-25T07:21:00;61059.38;;;-144.06;64.47
11017;BME280;54687;50.800;6.772;2023-03-25T07:23:26;61109.69;;;-144.06;63.76
11017;BME280;54687;50.800;6.772;2023-03-25T07:25:53;61061.47;;;-144.06;63.04
11017;BME280;54687;50.800;6.772;2023-03-25T07:28:21;61069.84;;;-144.06;61.92
11017;BME280;54687;50.800;6.772;2023-03-25T07:30:48;61055.19;;;-144.06;60.95
11017;BME280;54687;50.800;6.772;2023-03-25T07:33:14;61061.47;;;-144.06;60.71
11017;BME280;54687;50.800;6.772;2023-03-25T07:35:42;61099.19;;;-144.06;60.23
11017;BME280;54687;50.800;6.772;2023-03-25T07:38:09;61130.66;;;-144.06;59.61
11017;BME280;54687;50.800;6.772;2023-03-25T07:40:36;61046.78;;;-144.06;59.85
11017;BME280;54687;50.800;6.772;2023-03-25T07:43:03;61053.09;;;-144.06;59.37
11017;BME280;54687;50.800;6.772;2023-03-25T07:45:29;61017.44;;;-144.06;58.62
11017;BME280;54687;50.800;6.772;2023-03-25T07:47:59;61042.59;;;-144.06;57.79
11017;BME280;54687;50.800;6.772;2023-03-25T07:50:25;61034.22;;;-144.06;57.58
11017;BME280;54687;50.800;6.772;2023-03-25T07:52:54;61009.06;;;-144.06;56.43
11017;BME280;54687;50.800;6.772;2023-03-25T07:55:20;61067.75;;;-144.06;56.19
11017;BME280;54687;50.800;6.772;2023-03-25T07:57:47;61038.41;;;-144.06;55.85
11017;BME280;54687;50.800;6.772;2023-03-25T08:00:14;61034.22;;;-144.06;55.31
11017;BME280;54687;50.800;6.772;2023-03-25T08:02:41;61046.78;;;-144.06;54.33
11017;BME280;54687;50.800;6.772;2023-03-25T08:05:08;61065.66;;;-144.06;54.50
11017;BME280;54687;50.800;6.772;2023-03-25T08:07:34;61063.56;;;-144.06;54.79
11017;BME280;54687;50.800;6.772;2023-03-25T08:10:03;61084.53;;;-144.06;54.16
11017;BME280;54687;50.800;6.772;2023-03-25T08:12:29;61051.00;;;-144.06;53.64
11017;BME280;54687;50.800;6.772;2023-03-25T08:14:56;61040.50;;;-144.06;54.31
11017;BME280;54687;50.800;6.772;2023-03-25T08:17:24;61057.28;;;-144.06;54.44
11017;BME280;54687;50.800;6.772;2023-03-25T08:19:51;61021.63;;;-144.06;54.53
11017;BME280;54687;50.800;6.772;2023-03-25T08:22:17;61051.00;;;-144.06;55.22
11017;BME280;54687;50.800;6.772;2023-03-25T08:24:44;61097.09;;;-144.06;55.29
11017;BME280;54687;50.800;6.772;2023-03-25T08:27:12;61105.50;;;-144.06;55.75
11017;BME280;54687;50.800;6.772;2023-03-25T08:29:39;61048.88;;;-144.06;55.53
11017;BME280;54687;50.800;6.772;2023-03-25T08:32:06;61059.38;;;-144.06;54.31
11017;BME280;54687;50.800;6.772;2023-03-25T08:34:32;61051.00;;;-144.06;54.23
11017;BME280;54687;50.800;6.772;2023-03-25T08:37:04;61025.84;;;-144.06;53.53
11017;BME280;54687;50.800;6.772;2023-03-25T08:39:32;61053.09;;;-144.06;53.69
11017;BME280;54687;50.800;6.772;2023-03-25T08:42:05;61059.38;;;-144.06;52.66
11017;BME280;54687;50.800;6.772;2023-03-25T08:44:33;61030.03;;;-144.06;52.31
11017;BME280;54687;50.800;6.772;2023-03-25T08:47:00;61065.66;;;-144.06;51.75
11017;BME280;54687;50.800;6.772;2023-03-25T08:49:26;61027.94;;;-144.06;50.77
11017;BME280;54687;50.800;6.772;2023-03-25T08:51:53;61025.84;;;-144.06;49.89
11017;BME280;54687;50.800;6.772;2023-03-25T08:54:22;61021.63;;;-144.06;49.60
11017;BME280;54687;50.800;6.772;2023-03-25T08:56:48;60988.09;;;-144.06;48.67
11017;BME280;54687;50.800;6.772;2023-03-25T08:59:15;61025.84;;;-144.06;48.74
11017;BME280;54687;50.800;6.772;2023-03-25T09:01:43;60998.59;;;-144.06;48.21
11017;BME280;54687;50.800;6.772;2023-03-25T09:04:10;61011.16;;;-144.06;47.66
11017;BME280;54687;50.800;6.772;2023-03-25T09:06:37;61009.06;;;-144.06;47.46
11017;BME280;54687;50.800;6.772;2023-03-25T09:09:05;60988.09;;;-144.06;47.16
11017;BME280;54687;50.800;6.772;2023-03-25T09:11:33;60965.03;;;-144.06;47.00
11017;BME280;54687;50.800;6.772;2023-03-25T09:14:00;60988.09;;;-144.06;46.11
11017;BME280;54687;50.800;6.772;2023-03-25T09:16:28;60967.13;;;-144.06;46.08
11017;BME280;54687;50.800;6.772;2023-03-25T09:18:56;60988.09;;;-144.06;46.29
11017;BME280;54687;50.800;6.772;2023-03-25T09:21:22;61013.25;;;-144.06;45.72
11017;BME280;54687;50.800;6.772;2023-03-25T09:23:49;60996.50;;;-144.06;46.03
11017;BME280;54687;50.800;6.772;2023-03-25T09:26:16;60975.53;;;-144.06;46.37
11017;BME280;54687;50.800;6.772;2023-03-25T09:28:42;60992.28;;;-144.06;46.44
11017;BME280;54687;50.800;6.772;2023-03-25T09:31:09;61000.69;;;-144.06;46.33
11017;BME280;54687;50.800;6.772;2023-03-25T09:33:36;60992.28;;;-144.06;46.12
11017;BME280;54687;50.800;6.772;2023-03-25T09:36:04;60983.91;;;-144.06;45.24
11017;BME280;54687;50.800;6.772;2023-03-25T09:38:32;60962.94;;;-144.06;45.60
11017;BME280;54687;50.800;6.772;2023-03-25T09:41:11;60975.53;;;-144.06;45.82
11017;BME280;54687;50.800;6.772;2023-03-25T09:43:50;61002.78;;;-144.06;45.45
11017;BME280;54687;50.800;6.772;2023-03-25T09:46:23;60977.63;;;-144.06;45.48
11017;BME280;54687;50.800;6.772;2023-03-25T09:48:50;61019.53;;;-144.06;45.71
11017;BME280;54687;50.800;6.772;2023-03-25T09:51:22;60983.91;;;-144.06;45.31
11017;BME280;54687;50.800;6.772;2023-03-25T09:53:54;60960.84;;;-144.06;46.18
11017;BME280;54687;50.800;6.772;2023-03-25T09:56:23;60958.75;;;-144.06;46.10
11017;BME280;54687;50.800;6.772;2023-03-25T09:58:57;61004.88;;;-144.06;46.11
11017;BME280;54687;50.800;6.772;2023-03-25T10:01:35;60998.59;;;-144.06;45.62
11017;BME280;54687;50.800;6.772;2023-03-25T10:04:33;60981.81;;;-144.06;45.79
11017;BME280;54687;50.800;6.772;2023-03-25T10:07:14;61017.44;;;-144.06;46.09
11017;BME280;54687;50.800;6.772;2023-03-25T10:09:52;60992.28;;;-144.06;45.71
11017;BME280;54687;50.800;6.772;2023-03-25T10:12:31;60977.63;;;-144.06;44.40
11017;BME280;54687;50.800;6.772;2023-03-25T10:15:10;60937.78;;;-144.06;44.32
11017;BME280;54687;50.800;6.772;2023-03-25T10:17:46;60958.75;;;-144.06;43.80
11017;BME280;54687;50.800;6.772;2023-03-25T10:20:24;60931.50;;;-144.06;44.31
11017;BME280;54687;50.800;6.772;2023-03-25T10:23:04;60962.94;;;-144.06;43.63
11017;BME280;54687;50.800;6.772;2023-03-25T10:25:35;60941.97;;;-144.06;43.95
11017;BME280;54687;50.800;6.772;2023-03-25T10:28:09;60939.88;;;-144.06;43.54
11017;BME280;54687;50.800;6.772;2023-03-25T10:30:43;60925.22;;;-144.06;43.17
11017;BME280;54687;50.800;6.772;2023-03-25T10:33:15;60933.59;;;-144.06;43.78
11017;BME280;54687;50.800;6.772;2023-03-25T10:35:46;60929.41;;;-144.06;43.97
11017;BME280;54687;50.800;6.772;2023-03-25T10:38:17;60916.84;;;-144.06;44.31
11017;BME280;54687;50.800;6.772;2023-03-25T10:40:47;60933.59;;;-144.06;43.14
11017;BME280;54687;50.800;6.772;2023-03-25T10:43:20;60956.66;;;-144.06;42.89
11017;BME280;54687;50.800;6.772;2023-03-25T10:45:51;60929.41;;;-144.06;42.14
11017;BME280;54687;50.800;6.772;2023-03-25T10:48:22;60906.34;;;-144.06;42.46
11017;BME280;54687;50.800;6.772;2023-03-25T10:50:51;60862.34;;;-144.06;42.88
11017;BME280;54687;50.800;6.772;2023-03-25T10:53:23;60906.34;;;-144.06;42.55
11017;BME280;54687;50.800;6.772;2023-03-25T10:55:54;60941.97;;;-144.06;42.67
11017;BME280;54687;50.800;6.772;2023-03-25T10:58:23;60906.34;;;-144.06;42.19
11017;BME280;54687;50.800;6.772;2023-03-25T11:00:49;60893.78;;;-144.06;42.09
11017;BME280;54687;50.800;6.772;2023-03-25T11:03:19;60891.69;;;-144.06;41.66
11017;BME280;54687;50.800;6.772;2023-03-25T11:05:48;60893.78;;;-144.06;41.43
11017;BME280;54687;50.800;6.772;2023-03-25T11:08:15;60933.59;;;-144.06;40.82
11017;BME280;54687;50.800;6.772;2023-03-25T11:10:47;60906.34;;;-144.06;41.87
11017;BME280;54687;50.800;6.772;2023-03-25T11:13:16;60925.22;;;-144.06;41.35
11017;BME280;54687;50.800;6.772;2023-03-25T11:15:47;60895.88;;;-144.06;42.45
11017;BME280;54687;50.800;6.772;2023-03-25T11:18:20;60933.59;;;-144.06;42.92
11017;BME280;54687;50.800;6.772;2023-03-25T11:20:49;60933.59;;;-144.06;42.64
11017;BME280;54687;50.800;6.772;2023-03-25T11:23:22;60897.97;;;-144.06;42.54
11017;BME280;54687;50.800;6.772;2023-03-25T11:25:51;60933.59;;;-144.06;42.20
11017;BME280;54687;50.800;6.772;2023-03-25T11:28:22;60950.38;;;-144.06;42.07
11017;BME280;54687;50.800;6.772;2023-03-25T11:31:12;60946.19;;;-144.06;41.79
11017;BME280;54687;50.800;6.772;2023-03-25T11:33:40;60895.88;;;-144.06;41.50
11017;BME280;54687;50.800;6.772;2023-03-25T11:36:16;60912.63;;;-144.06;41.15
11017;BME280;54687;50.800;6.772;2023-03-25T11:38:51;60933.59;;;-144.06;41.39
11017;BME280;54687;50.800;6.772;2023-03-25T11:41:19;60939.88;;;-144.06;41.51
11017;BME280;54687;50.800;6.772;2023-03-25T11:43:47;60937.78;;;-144.06;42.06
11017;BME280;54687;50.800;6.772;2023-03-25T11:46:16;60864.44;;;-144.06;42.58
11017;BME280;54687;50.800;6.772;2023-03-25T11:48:44;60912.63;;;-144.06;41.04
11017;BME280;54687;50.800;6.772;2023-03-25T11:51:13;60870.72;;;-144.06;40.08
11017;BME280;54687;50.800;6.772;2023-03-25T11:53:44;60885.38;;;-144.06;40.67
11017;BME280;54687;50.800;6.772;2023-03-25T11:56:15;60858.13;;;-144.06;40.99
11017;BME280;54687;50.800;6.772;2023-03-25T11:58:46;60937.78;;;-144.06;40.86
11017;BME280;54687;50.800;6.772;2023-03-25T12:01:23;60900.06;;;-144.06;40.19
11017;BME280;54687;50.800;6.772;2023-03-25T12:03:51;60874.91;;;-144.06;39.50
11017;BME280;54687;50.800;6.772;2023-03-25T12:06:19;60862.34;;;-144.06;39.84
11017;BME280;54687;50.800;6.772;2023-03-25T12:08:50;60870.72;;;-144.06;39.27
11017;BME280;54687;50.800;6.772;2023-03-25T12:11:19;60870.72;;;-144.06;39.30
11017;BME280;54687;50.800;6.772;2023-03-25T12:14:06;60853.94;;;-144.06;38.33
11017;BME280;54687;50.800;6.772;2023-03-25T12:16:43;60866.53;;;-144.06;38.38
11017;BME280;54687;50.800;6.772;2023-03-25T12:19:15;60841.38;;;-144.06;37.88
11017;BME280;54687;50.800;6.772;2023-03-25T12:21:57;60874.91;;;-144.06;37.94
11017;BME280;54687;50.800;6.772;2023-03-25T12:24:37;60900.06;;;-144.06;38.26
11017;BME280;54687;50.800;6.772;2023-03-25T12:27:22;60870.72;;;-144.06;37.58
11017;BME280;54687;50.800;6.772;2023-03-25T12:29:55;60904.25;;;-144.06;37.95
11017;BME280;54687;50.800;6.772;2023-03-25T12:32:33;60849.75;;;-144.06;38.12
11017;BME280;54687;50.800;6.772;2023-03-25T12:35:13;60908.44;;;-144.06;38.55
11017;BME280;54687;50.800;6.772;2023-03-25T12:40:48;60941.97;;;-144.06;39.13
11017;BME280;54687;50.800;6.772;2023-03-25T12:43:21;60910.53;;;-144.06;39.28
11017;BME280;54687;50.800;6.772;2023-03-25T12:46:04;60891.69;;;-144.06;39.09
11017;BME280;54687;50.800;6.772;2023-03-25T12:48:54;60897.97;;;-144.06;39.42
11017;BME280;54687;50.800;6.772;2023-03-25T12:51:36;60902.16;;;-144.06;40.18
11017;BME280;54687;50.800;6.772;2023-03-25T12:54:20;60912.63;;;-144.06;38.87
11017;BME280;54687;50.800;6.772;2023-03-25T12:57:00;60904.25;;;-144.06;39.35
11017;BME280;54687;50.800;6.772;2023-03-25T12:59:44;60887.47;;;-144.06;38.67
11017;BME280;54687;50.800;6.772;2023-03-25T13:02:27;60906.34;;;-144.06;38.12
11017;BME280;54687;50.800;6.772;2023-03-25T13:05:13;60889.59;;;-144.06;38.73